MTN7116 TFFF-TLPC
Flight info
| Callsign | MTN7116 |
|---|---|
| Flight time | 0h 28m |
| Altitude | 4000 |
| Route | KISES2R KISES DCT SLU |
| Aircraft | C208/L-SDF/C |
Departure
| Time | 2026-04-21 21:10 |
|---|---|
| Airport | Martinique Aimé Césaire International Airport (TFFF) |
Arrival
| Time | 2026-04-21 21:39 |
|---|---|
| Airport | George F. L. Charles Airport (TLPC) |
| Time | Latitude | Longitude | Altitude | Speed | Heading |
|---|---|---|---|---|---|
| 2026-04-21 20:46 | 14.59553 | -61.00412 | 16 ft | 0 kts | 245° |
| 2026-04-21 21:00 | 14.59566 | -61.00430 | 15 ft | 11 kts | 13° |
| 2026-04-21 21:00 | 14.59618 | -61.00340 | 15 ft | 14 kts | 94° |
| 2026-04-21 21:01 | 14.59503 | -61.00263 | 18 ft | 26 kts | 144° |
| 2026-04-21 21:01 | 14.59376 | -61.00092 | 17 ft | 28 kts | 102° |
| 2026-04-21 21:01 | 14.59256 | -61.00039 | 18 ft | 26 kts | 161° |
| 2026-04-21 21:01 | 14.59143 | -61.00112 | 15 ft | 23 kts | 262° |
| 2026-04-21 21:02 | 14.59110 | -61.00321 | 15 ft | 35 kts | 260° |
| 2026-04-21 21:02 | 14.59073 | -61.00591 | 15 ft | 33 kts | 258° |
| 2026-04-21 21:02 | 14.59043 | -61.00685 | 18 ft | 7 kts | 56° |
| 2026-04-21 21:02 | 14.59046 | -61.00678 | 18 ft | 0 kts | 73° |
| 2026-04-21 21:03 | 14.59075 | -61.00504 | 14 ft | 49 kts | 80° |
| 2026-04-21 21:03 | 14.59553 | -61.00412 | 15 ft | 0 kts | 245° |
| 2026-04-21 21:06 | 14.59553 | -61.00413 | 15 ft | 0 kts | 245° |
| 2026-04-21 21:07 | 14.59541 | -61.00396 | 16 ft | 12 kts | 71° |
| 2026-04-21 21:07 | 14.59545 | -61.00289 | 17 ft | 20 kts | 159° |
| 2026-04-21 21:07 | 14.59415 | -61.00164 | 17 ft | 32 kts | 124° |
| 2026-04-21 21:07 | 14.59253 | -61.00035 | 18 ft | 35 kts | 177° |
| 2026-04-21 21:08 | 14.59135 | -61.00140 | 15 ft | 25 kts | 263° |
| 2026-04-21 21:08 | 14.59108 | -61.00359 | 15 ft | 36 kts | 257° |
| 2026-04-21 21:08 | 14.59061 | -61.00646 | 16 ft | 44 kts | 263° |
| 2026-04-21 21:08 | 14.59028 | -61.00832 | 21 ft | 10 kts | 224° |
| 2026-04-21 21:09 | 14.59025 | -61.00806 | 21 ft | 0 kts | 79° |
| 2026-04-21 21:09 | 14.59035 | -61.00741 | 20 ft | 29 kts | 81° |
| 2026-04-21 21:09 | 14.59097 | -61.00353 | 15 ft | 79 kts | 78° |
| 2026-04-21 21:10 | 14.59173 | -60.99715 | 207 ft | 91 kts | 86° |
| 2026-04-21 21:10 | 14.59191 | -60.99037 | 338 ft | 97 kts | 87° |
| 2026-04-21 21:10 | 14.59171 | -60.98338 | 477 ft | 98 kts | 90° |
| 2026-04-21 21:10 | 14.59123 | -60.97636 | 618 ft | 98 kts | 93° |
| 2026-04-21 21:11 | 14.59078 | -60.97176 | 716 ft | 97 kts | 94° |
| 2026-04-21 21:11 | 14.59083 | -60.96491 | 847 ft | 95 kts | 70° |
| 2026-04-21 21:11 | 14.59286 | -60.95842 | 1013 ft | 94 kts | 72° |
| 2026-04-21 21:11 | 14.59469 | -60.95214 | 1172 ft | 88 kts | 72° |
| 2026-04-21 21:12 | 14.59648 | -60.94592 | 1359 ft | 93 kts | 72° |
| 2026-04-21 21:12 | 14.59894 | -60.93720 | 1610 ft | 98 kts | 72° |
| 2026-04-21 21:12 | 14.60023 | -60.93260 | 1731 ft | 100 kts | 72° |
| 2026-04-21 21:12 | 14.60216 | -60.92572 | 1909 ft | 102 kts | 72° |
| 2026-04-21 21:13 | 14.60422 | -60.91860 | 2101 ft | 105 kts | 72° |
| 2026-04-21 21:13 | 14.60634 | -60.91136 | 2281 ft | 106 kts | 72° |
| 2026-04-21 21:13 | 14.60511 | -60.90409 | 2456 ft | 113 kts | 133° |
| 2026-04-21 21:13 | 14.59746 | -60.90216 | 2644 ft | 118 kts | 179° |
| 2026-04-21 21:14 | 14.58925 | -60.90214 | 2834 ft | 118 kts | 176° |
| 2026-04-21 21:14 | 14.58094 | -60.90207 | 3017 ft | 120 kts | 176° |
| 2026-04-21 21:14 | 14.57251 | -60.90201 | 3197 ft | 122 kts | 176° |
| 2026-04-21 21:14 | 14.56400 | -60.90196 | 3375 ft | 122 kts | 176° |
| 2026-04-21 21:15 | 14.55569 | -60.90184 | 3548 ft | 120 kts | 176° |
| 2026-04-21 21:15 | 14.54737 | -60.90174 | 3722 ft | 119 kts | 176° |
| 2026-04-21 21:15 | 14.53916 | -60.90168 | 3891 ft | 118 kts | 176° |
| 2026-04-21 21:15 | 14.53067 | -60.90158 | 3944 ft | 128 kts | 176° |
| 2026-04-21 21:16 | 14.52139 | -60.90143 | 3955 ft | 136 kts | 176° |
| 2026-04-21 21:16 | 14.51170 | -60.90119 | 3953 ft | 143 kts | 176° |
| 2026-04-21 21:16 | 14.50163 | -60.90093 | 3951 ft | 146 kts | 176° |
| 2026-04-21 21:16 | 14.49139 | -60.90066 | 3951 ft | 148 kts | 176° |
| 2026-04-21 21:17 | 14.48106 | -60.90040 | 3954 ft | 149 kts | 176° |
| 2026-04-21 21:17 | 14.47058 | -60.90014 | 3951 ft | 151 kts | 176° |
| 2026-04-21 21:17 | 14.46011 | -60.89984 | 3953 ft | 150 kts | 177° |
| 2026-04-21 21:17 | 14.44961 | -60.89958 | 3951 ft | 151 kts | 177° |
| 2026-04-21 21:18 | 14.43907 | -60.89929 | 3952 ft | 152 kts | 176° |
| 2026-04-21 21:18 | 14.42865 | -60.89901 | 3952 ft | 151 kts | 176° |
| 2026-04-21 21:18 | 14.41817 | -60.89869 | 3950 ft | 151 kts | 176° |
| 2026-04-21 21:18 | 14.40765 | -60.89839 | 3952 ft | 152 kts | 176° |
| 2026-04-21 21:19 | 14.39708 | -60.89826 | 3950 ft | 152 kts | 182° |
| 2026-04-21 21:19 | 14.38666 | -60.90008 | 3949 ft | 152 kts | 195° |
| 2026-04-21 21:19 | 14.37709 | -60.90488 | 3948 ft | 153 kts | 208° |
| 2026-04-21 21:19 | 14.36778 | -60.91017 | 3949 ft | 152 kts | 207° |
| 2026-04-21 21:20 | 14.35847 | -60.91543 | 3950 ft | 152 kts | 207° |
| 2026-04-21 21:20 | 14.34920 | -60.92067 | 3949 ft | 152 kts | 207° |
| 2026-04-21 21:20 | 14.33995 | -60.92593 | 3947 ft | 152 kts | 208° |
| 2026-04-21 21:20 | 14.33063 | -60.93121 | 3947 ft | 153 kts | 207° |
| 2026-04-21 21:21 | 14.32130 | -60.93640 | 3948 ft | 153 kts | 207° |
| 2026-04-21 21:21 | 14.31208 | -60.94156 | 3948 ft | 153 kts | 207° |
| 2026-04-21 21:21 | 14.30275 | -60.94684 | 3946 ft | 153 kts | 208° |
| 2026-04-21 21:21 | 14.29342 | -60.95217 | 3947 ft | 154 kts | 207° |
| 2026-04-21 21:22 | 14.28398 | -60.95747 | 3947 ft | 153 kts | 207° |
| 2026-04-21 21:22 | 14.27467 | -60.96273 | 3945 ft | 152 kts | 208° |
| 2026-04-21 21:22 | 14.26540 | -60.96802 | 3942 ft | 152 kts | 208° |
| 2026-04-21 21:22 | 14.25618 | -60.97326 | 3954 ft | 151 kts | 208° |
| 2026-04-21 21:23 | 14.24696 | -60.97850 | 3952 ft | 151 kts | 207° |
| 2026-04-21 21:23 | 14.23766 | -60.98373 | 3954 ft | 152 kts | 207° |
| 2026-04-21 21:23 | 14.22910 | -60.99011 | 3952 ft | 153 kts | 220° |
| 2026-04-21 21:23 | 14.22022 | -60.99601 | 3951 ft | 152 kts | 198° |
| 2026-04-21 21:24 | 14.20996 | -60.99812 | 3955 ft | 150 kts | 186° |
| 2026-04-21 21:24 | 14.19960 | -60.99953 | 3957 ft | 150 kts | 186° |
| 2026-04-21 21:24 | 14.18939 | -61.00192 | 3952 ft | 152 kts | 205° |
| 2026-04-21 21:24 | 14.18158 | -61.00923 | 3955 ft | 153 kts | 236° |
| 2026-04-21 21:25 | 14.17600 | -61.01863 | 3959 ft | 154 kts | 238° |
| 2026-04-21 21:25 | 14.17030 | -61.02793 | 3961 ft | 154 kts | 238° |
| 2026-04-21 21:25 | 14.16469 | -61.03715 | 3960 ft | 154 kts | 238° |
| 2026-04-21 21:25 | 14.15902 | -61.04651 | 3961 ft | 154 kts | 238° |
| 2026-04-21 21:26 | 14.15332 | -61.05582 | 3960 ft | 154 kts | 237° |
| 2026-04-21 21:26 | 14.14760 | -61.06516 | 3961 ft | 154 kts | 237° |
| 2026-04-21 21:26 | 14.14187 | -61.07450 | 3958 ft | 154 kts | 237° |
| 2026-04-21 21:26 | 14.13616 | -61.08385 | 3958 ft | 154 kts | 238° |
| 2026-04-21 21:27 | 14.13046 | -61.09316 | 3959 ft | 154 kts | 238° |
| 2026-04-21 21:27 | 14.12476 | -61.10248 | 3959 ft | 154 kts | 237° |
| 2026-04-21 21:27 | 14.11905 | -61.11184 | 3957 ft | 154 kts | 238° |
| 2026-04-21 21:27 | 14.11334 | -61.12125 | 3958 ft | 155 kts | 237° |
| 2026-04-21 21:28 | 14.10765 | -61.13053 | 3958 ft | 155 kts | 237° |
| 2026-04-21 21:28 | 14.10190 | -61.13994 | 3958 ft | 155 kts | 237° |
| 2026-04-21 21:28 | 14.09035 | -61.15874 | 3956 ft | 155 kts | 238° |
| 2026-04-21 21:29 | 14.08464 | -61.16822 | 3956 ft | 155 kts | 238° |
| 2026-04-21 21:29 | 14.07888 | -61.17759 | 3955 ft | 155 kts | 238° |
| 2026-04-21 21:29 | 14.07312 | -61.18705 | 3953 ft | 156 kts | 238° |
| 2026-04-21 21:29 | 14.06737 | -61.19642 | 3985 ft | 153 kts | 238° |
| 2026-04-21 21:30 | 14.06168 | -61.20572 | 3984 ft | 154 kts | 238° |
| 2026-04-21 21:30 | 14.05597 | -61.21506 | 3989 ft | 155 kts | 238° |
| 2026-04-21 21:30 | 14.05014 | -61.22444 | 3989 ft | 156 kts | 234° |
| 2026-04-21 21:30 | 14.04177 | -61.23124 | 3991 ft | 154 kts | 202° |
| 2026-04-21 21:31 | 14.03142 | -61.23319 | 3981 ft | 151 kts | 174° |
| 2026-04-21 21:31 | 14.02141 | -61.23080 | 3990 ft | 150 kts | 161° |
| 2026-04-21 21:31 | 14.01136 | -61.22795 | 3988 ft | 150 kts | 163° |
| 2026-04-21 21:31 | 14.00128 | -61.22516 | 3993 ft | 150 kts | 162° |
| 2026-04-21 21:32 | 13.99122 | -61.22238 | 3988 ft | 150 kts | 162° |
| 2026-04-21 21:32 | 13.98112 | -61.21958 | 3993 ft | 150 kts | 162° |
| 2026-04-21 21:32 | 13.97224 | -61.21436 | 3960 ft | 148 kts | 132° |
| 2026-04-21 21:32 | 13.96689 | -61.20517 | 3799 ft | 153 kts | 105° |
| 2026-04-21 21:33 | 13.96656 | -61.19462 | 3614 ft | 144 kts | 77° |
| 2026-04-21 21:33 | 13.96933 | -61.18493 | 3433 ft | 138 kts | 73° |
| 2026-04-21 21:33 | 13.97189 | -61.17549 | 3253 ft | 136 kts | 74° |
| 2026-04-21 21:33 | 13.97439 | -61.16621 | 3073 ft | 134 kts | 74° |
| 2026-04-21 21:34 | 13.97677 | -61.15699 | 2895 ft | 133 kts | 75° |
| 2026-04-21 21:34 | 13.97918 | -61.14782 | 2724 ft | 133 kts | 74° |
| 2026-04-21 21:34 | 13.98159 | -61.13864 | 2539 ft | 133 kts | 75° |
| 2026-04-21 21:34 | 13.98403 | -61.12947 | 2367 ft | 132 kts | 74° |
| 2026-04-21 21:35 | 13.98642 | -61.12050 | 2222 ft | 130 kts | 75° |
| 2026-04-21 21:35 | 13.98877 | -61.11156 | 2095 ft | 129 kts | 75° |
| 2026-04-21 21:35 | 13.99108 | -61.10270 | 1966 ft | 128 kts | 75° |
| 2026-04-21 21:35 | 13.99336 | -61.09384 | 1838 ft | 127 kts | 75° |
| 2026-04-21 21:36 | 13.99567 | -61.08505 | 1725 ft | 126 kts | 75° |
| 2026-04-21 21:36 | 13.99798 | -61.07633 | 1623 ft | 126 kts | 75° |
| 2026-04-21 21:36 | 14.00027 | -61.06766 | 1507 ft | 126 kts | 75° |
| 2026-04-21 21:36 | 14.00258 | -61.05887 | 1381 ft | 128 kts | 75° |
| 2026-04-21 21:37 | 14.00491 | -61.05001 | 1257 ft | 128 kts | 75° |
| 2026-04-21 21:37 | 14.00726 | -61.04104 | 1091 ft | 131 kts | 75° |
| 2026-04-21 21:37 | 14.00978 | -61.03228 | 910 ft | 122 kts | 73° |
| 2026-04-21 21:37 | 14.01191 | -61.02399 | 657 ft | 118 kts | 77° |
| 2026-04-21 21:38 | 14.01390 | -61.01628 | 478 ft | 104 kts | 75° |
| 2026-04-21 21:38 | 14.01563 | -61.00946 | 299 ft | 100 kts | 75° |
| 2026-04-21 21:38 | 14.01763 | -61.00211 | 115 ft | 109 kts | 75° |
| 2026-04-21 21:38 | 14.01947 | -60.99511 | 27 ft | 89 kts | 75° |
| 2026-04-21 21:39 | 14.02081 | -60.98994 | 28 ft | 66 kts | 74° |
| 2026-04-21 21:39 | 14.02132 | -60.98802 | 27 ft | 0 kts | 83° |
| 2026-04-21 21:39 | 14.02126 | -60.98808 | 27 ft | 7 kts | 289° |
| 2026-04-21 21:39 | 14.02102 | -60.98915 | 27 ft | 23 kts | 253° |
| 2026-04-21 21:40 | 14.02046 | -60.99119 | 29 ft | 36 kts | 256° |
| 2026-04-21 21:40 | 14.01979 | -60.99395 | 24 ft | 37 kts | 257° |
| 2026-04-21 21:40 | 14.01996 | -60.99514 | 27 ft | 16 kts | 287° |
| 2026-04-21 21:40 | 14.02024 | -60.99573 | 27 ft | 6 kts | 341° |
| 2026-04-21 21:41 | 14.02024 | -60.99559 | 27 ft | 2 kts | 148° |
| 2026-04-21 21:41 | 14.02024 | -60.99558 | 27 ft | 0 kts | 147° |